Time;durP1;ratioP1;P1;durP2;ratioP2;P2;SDS_P1;SDS_P2;PMS_P1;PMS_P2;Temp;Humidity;BMP_temperature;BMP_pressure;BME280_temperature;BME280_humidity;BME280_pressure;Samples;Min_cycle;Max_cycle;Signal;HPM_P1;HPM_P2
2022/09/26 00:02:25;;;;;;;9.50;7.33;;;;;;;;;;4952311;28;20445;-57
2022/09/26 00:04:57;;;;;;;10.07;6.47;;;;;;;;;;4975755;28;20462;-55
2022/09/26 00:07:24;;;;;;;10.73;6.37;;;;;;;;;;4959789;28;20441;-56
2022/09/26 00:09:50;;;;;;;8.03;6.10;;;;;;;;;;4982785;28;20445;-56
2022/09/26 00:12:16;;;;;;;7.47;5.90;;;;;;;;;;4968099;28;20499;-53
2022/09/26 00:14:42;;;;;;;9.13;6.00;;;;;;;;;;4983822;28;20469;-54
2022/09/26 00:17:08;;;;;;;10.13;6.23;;;;;;;;;;4957889;28;20841;-55
2022/09/26 00:19:34;;;;;;;10.53;6.43;;;;;;;;;;4983658;28;20581;-55
2022/09/26 00:22:00;;;;;;;9.47;6.70;;;;;;;;;;4969807;28;20445;-57
2022/09/26 00:24:26;;;;;;;7.90;6.43;;;;;;;;;;4962710;28;22459;-55
2022/09/26 00:26:52;;;;;;;9.57;5.97;;;;;;;;;;4976005;28;20484;-54
2022/09/26 00:29:55;;;;;;;13.67;6.27;;;;;;;;;;4976808;28;20461;-57
2022/09/26 00:32:23;;;;;;;7.70;6.30;;;;;;;;;;4963552;28;20441;-54
2022/09/26 00:34:49;;;;;;;12.67;7.07;;;;;;;;;;4974803;28;20484;-57
2022/09/26 00:37:15;;;;;;;9.90;6.20;;;;;;;;;;4966178;28;20453;-57
2022/09/26 00:39:41;;;;;;;10.60;7.00;;;;;;;;;;4982142;28;20460;-56
2022/09/26 00:42:09;;;;;;;10.27;5.87;;;;;;;;;;4966603;28;20436;-56
2022/09/26 00:44:45;;;;;;;10.00;6.73;;;;;;;;;;4978632;28;20528;-57
2022/09/26 00:47:31;;;;;;;9.70;5.70;;;;;;;;;;4970564;28;20452;-55
2022/09/26 00:50:02;;;;;;;6.77;5.77;;;;;;;;;;4975009;28;20443;-54
2022/09/26 00:52:40;;;;;;;9.37;6.80;;;;;;;;;;4971870;28;20528;-57
2022/09/26 00:55:07;;;;;;;9.20;6.60;;;;;;;;;;4976522;28;20841;-57
2022/09/26 00:57:35;;;;;;;9.80;7.57;;;;;;;;;;4975658;28;20444;-55
2022/09/26 01:00:46;;;;;;;9.23;5.93;;;;;;;;;;4981119;28;20777;-55
2022/09/26 01:03:12;;;;;;;9.97;6.20;;;;;;;;;;4987863;28;20813;-55
2022/09/26 01:05:41;;;;;;;13.13;7.37;;;;;;;;;;4968894;28;22846;-58
2022/09/26 01:08:07;;;;;;;12.27;7.70;;;;;;;;;;4969881;28;20437;-59
2022/09/26 01:10:35;;;;;;;11.47;7.10;;;;;;;;;;4962774;28;20918;-56
2022/09/26 01:13:01;;;;;;;11.30;7.27;;;;;;;;;;4976677;28;20472;-56
2022/09/26 01:15:38;;;;;;;10.97;7.90;;;;;;;;;;4966754;28;20488;-55
2022/09/26 01:18:04;;;;;;;8.53;7.53;;;;;;;;;;4978752;28;20522;-57
2022/09/26 01:20:37;;;;;;;13.90;8.10;;;;;;;;;;4971184;28;20440;-54
2022/09/26 01:23:22;;;;;;;10.37;7.40;;;;;;;;;;4972557;28;20946;-56
2022/09/26 01:25:51;;;;;;;10.63;6.93;;;;;;;;;;4966222;28;20526;-55
2022/09/26 01:28:27;;;;;;;10.50;7.13;;;;;;;;;;4967595;28;20436;-54
2022/09/26 01:31:01;;;;;;;7.30;6.07;;;;;;;;;;4997637;28;20453;-56
2022/09/26 01:33:46;;;;;;;12.57;7.30;;;;;;;;;;4945269;28;20441;-56
2022/09/26 01:36:18;;;;;;;13.87;8.50;;;;;;;;;;4969009;28;20652;-55
2022/09/26 01:39:24;;;;;;;11.83;7.60;;;;;;;;;;4964832;28;20437;-55
2022/09/26 01:42:01;;;;;;;9.50;7.60;;;;;;;;;;4977825;28;20448;-56
2022/09/26 01:44:31;;;;;;;10.40;7.40;;;;;;;;;;4947986;28;20460;-58
2022/09/26 01:47:14;;;;;;;10.80;7.10;;;;;;;;;;4977172;28;20429;-57
2022/09/26 01:49:41;;;;;;;10.73;7.43;;;;;;;;;;4931937;28;20494;-54
2022/09/26 01:52:13;;;;;;;9.30;6.73;;;;;;;;;;4961094;28;20434;-56
2022/09/26 01:55:02;;;;;;;9.83;7.30;;;;;;;;;;4985569;28;20476;-58
2022/09/26 01:57:51;;;;;;;12.60;8.07;;;;;;;;;;4972770;28;20445;-56
2022/09/26 02:00:21;;;;;;;10.00;6.53;;;;;;;;;;4948254;28;20446;-56
2022/09/26 02:02:47;;;;;;;12.07;7.47;;;;;;;;;;4975032;28;20436;-55
2022/09/26 02:08:17;;;;;;;12.33;7.10;;;;;;;;;;4963015;28;20492;-56
2022/09/26 02:10:45;;;;;;;9.53;7.53;;;;;;;;;;4963910;28;20437;-55
2022/09/26 02:13:16;;;;;;;10.47;7.17;;;;;;;;;;4969148;28;20190;-56
2022/09/26 02:16:06;;;;;;;9.57;6.87;;;;;;;;;;4976486;28;21461;-57
2022/09/26 02:18:40;;;;;;;8.97;7.00;;;;;;;;;;4999877;28;20524;-57
2022/09/26 02:21:09;;;;;;;8.70;6.20;;;;;;;;;;4950190;28;20483;-56
2022/09/26 02:23:35;;;;;;;8.23;6.10;;;;;;;;;;4977760;28;20434;-56
2022/09/26 02:26:01;;;;;;;8.30;6.40;;;;;;;;;;4972768;28;20491;-57
2022/09/26 02:28:27;;;;;;;10.43;6.70;;;;;;;;;;4977903;28;20441;-56
2022/09/26 02:30:54;;;;;;;8.23;5.90;;;;;;;;;;4978578;28;21118;-57
2022/09/26 02:33:20;;;;;;;10.00;6.50;;;;;;;;;;4984428;28;20447;-56
2022/09/26 02:35:53;;;;;;;7.40;6.07;;;;;;;;;;4956316;28;21011;-58
2022/09/26 02:38:19;;;;;;;6.90;5.50;;;;;;;;;;4968316;28;21004;-56
2022/09/26 02:41:12;;;;;;;6.53;5.80;;;;;;;;;;4976981;28;20437;-57
2022/09/26 02:43:38;;;;;;;11.03;5.47;;;;;;;;;;4973114;28;20552;-57
2022/09/26 02:46:22;;;;;;;11.70;5.80;;;;;;;;;;4969469;28;20449;-56
2022/09/26 02:49:07;;;;;;;8.53;6.03;;;;;;;;;;4980591;28;20455;-56
2022/09/26 02:51:45;;;;;;;6.57;4.63;;;;;;;;;;4975864;28;20456;-54
2022/09/26 02:54:14;;;;;;;7.43;5.60;;;;;;;;;;4978618;28;20954;-55
2022/09/26 02:56:44;;;;;;;9.50;5.23;;;;;;;;;;4974316;28;20567;-57
2022/09/26 02:59:20;;;;;;;8.90;5.83;;;;;;;;;;4975655;28;20464;-55
2022/09/26 03:01:46;;;;;;;9.57;6.17;;;;;;;;;;4975124;28;20439;-58
2022/09/26 03:04:22;;;;;;;8.97;6.00;;;;;;;;;;4974820;28;20498;-56
2022/09/26 03:06:49;;;;;;;9.17;5.97;;;;;;;;;;4970810;28;20432;-55
2022/09/26 03:09:15;;;;;;;10.03;6.80;;;;;;;;;;4970716;28;20560;-54
2022/09/26 03:11:41;;;;;;;7.13;5.40;;;;;;;;;;4973965;28;20523;-55
2022/09/26 03:14:07;;;;;;;6.67;4.93;;;;;;;;;;4976938;28;20539;-56
2022/09/26 03:16:37;;;;;;;6.23;5.43;;;;;;;;;;4977528;28;20552;-55
2022/09/26 03:19:25;;;;;;;6.00;5.00;;;;;;;;;;4981538;28;21003;-55
2022/09/26 03:21:51;;;;;;;6.77;5.37;;;;;;;;;;4970105;28;20446;-57
2022/09/26 03:24:17;;;;;;;7.40;5.80;;;;;;;;;;4987968;28;20525;-56
2022/09/26 03:26:51;;;;;;;7.10;4.40;;;;;;;;;;4969616;28;20945;-56
2022/09/26 03:29:20;;;;;;;8.33;5.60;;;;;;;;;;4974667;28;20933;-57
2022/09/26 03:31:55;;;;;;;6.67;5.53;;;;;;;;;;4976303;28;20959;-57
2022/09/26 03:34:21;;;;;;;7.97;5.00;;;;;;;;;;4979962;28;20434;-56
2022/09/26 03:36:48;;;;;;;7.00;5.50;;;;;;;;;;4957648;28;20465;-57
2022/09/26 03:39:14;;;;;;;5.90;4.33;;;;;;;;;;4978034;28;20436;-55
2022/09/26 03:41:41;;;;;;;7.50;4.73;;;;;;;;;;4964741;28;21243;-57
2022/09/26 03:44:07;;;;;;;5.47;4.53;;;;;;;;;;4976199;28;20444;-56
2022/09/26 03:46:33;;;;;;;5.03;3.83;;;;;;;;;;4975551;28;20438;-57
2022/09/26 03:48:59;;;;;;;4.40;3.50;;;;;;;;;;4976662;28;20435;-54
2022/09/26 03:51:25;;;;;;;12.73;6.77;;;;;;;;;;4973340;28;20528;-56
2022/09/26 03:53:52;;;;;;;6.00;4.70;;;;;;;;;;4975307;28;20755;-56
2022/09/26 03:56:18;;;;;;;5.00;4.27;;;;;;;;;;4981321;28;20487;-55
2022/09/26 03:58:44;;;;;;;5.30;4.50;;;;;;;;;;4973208;28;20445;-56
2022/09/26 04:01:11;;;;;;;7.70;5.00;;;;;;;;;;4971115;28;20448;-56
2022/09/26 04:04:09;;;;;;;7.43;4.90;;;;;;;;;;4969087;28;20458;-55
2022/09/26 04:06:40;;;;;;;5.67;5.00;;;;;;;;;;4981154;28;20579;-57
2022/09/26 04:09:20;;;;;;;6.03;4.90;;;;;;;;;;4981055;28;20456;-57
2022/09/26 04:12:27;;;;;;;7.70;5.97;;;;;;;;;;4983339;28;20539;-59
2022/09/26 04:15:10;;;;;;;4.27;3.87;;;;;;;;;;4966224;28;20471;-57
2022/09/26 04:17:51;;;;;;;4.97;3.83;;;;;;;;;;4983475;28;21643;-55
2022/09/26 04:20:22;;;;;;;4.53;3.47;;;;;;;;;;4976319;28;20446;-56
2022/09/26 04:22:48;;;;;;;4.70;4.17;;;;;;;;;;4968122;28;20448;-56
2022/09/26 04:25:14;;;;;;;6.93;3.70;;;;;;;;;;4976940;28;20445;-55
2022/09/26 04:27:40;;;;;;;5.60;3.03;;;;;;;;;;4968535;28;20443;-56
2022/09/26 04:30:08;;;;;;;7.43;3.53;;;;;;;;;;4976904;28;20444;-54
2022/09/26 04:32:34;;;;;;;11.57;4.00;;;;;;;;;;4967925;28;21955;-55
2022/09/26 04:35:00;;;;;;;5.33;3.47;;;;;;;;;;4962522;28;20476;-57
2022/09/26 04:37:26;;;;;;;7.20;4.30;;;;;;;;;;4976539;28;20935;-56
2022/09/26 04:39:52;;;;;;;6.00;4.50;;;;;;;;;;4952741;28;20444;-56
2022/09/26 04:42:20;;;;;;;5.73;4.13;;;;;;;;;;4974716;28;21299;-57
2022/09/26 04:45:09;;;;;;;4.70;3.80;;;;;;;;;;4978859;28;21874;-58
2022/09/26 04:47:35;;;;;;;6.00;4.13;;;;;;;;;;4978882;28;20996;-56
2022/09/26 04:50:01;;;;;;;4.87;3.27;;;;;;;;;;4952479;28;20577;-57
2022/09/26 04:52:27;;;;;;;5.37;4.10;;;;;;;;;;4973201;28;22180;-56
2022/09/26 04:55:00;;;;;;;5.73;4.07;;;;;;;;;;4952503;28;20800;-56
2022/09/26 04:57:26;;;;;;;13.10;4.20;;;;;;;;;;4975064;28;20548;-55
2022/09/26 04:59:52;;;;;;;6.30;3.97;;;;;;;;;;4971954;28;20528;-56
2022/09/26 05:02:19;;;;;;;10.73;3.40;;;;;;;;;;4976231;28;20437;-53
2022/09/26 05:07:51;;;;;;;3.80;3.40;;;;;;;;;;4977683;28;20432;-57
2022/09/26 05:10:18;;;;;;;5.00;3.60;;;;;;;;;;4960014;28;20846;-56
2022/09/26 05:12:44;;;;;;;8.30;4.80;;;;;;;;;;4972428;28;20429;-57
2022/09/26 05:15:10;;;;;;;3.90;3.50;;;;;;;;;;4946931;28;20237;-56
2022/09/26 05:17:36;;;;;;;3.67;3.37;;;;;;;;;;4972565;28;20468;-55
2022/09/26 05:29:08;;;;;;;6.30;3.93;;;;;;;;;;4967130;28;20532;-56
2022/09/26 05:31:39;;;;;;;6.03;3.70;;;;;;;;;;4969909;28;20543;-56
2022/09/26 05:34:11;;;;;;;13.30;4.23;;;;;;;;;;4973177;28;20453;-56
2022/09/26 05:42:32;;;;;;;5.77;4.00;;;;;;;;;;4963938;28;20497;-56
2022/09/26 05:45:02;;;;;;;4.70;3.90;;;;;;;;;;4983180;28;20432;-54
2022/09/26 05:47:30;;;;;;;4.67;3.40;;;;;;;;;;4968603;28;20532;-54
2022/09/26 05:49:56;;;;;;;6.83;4.40;;;;;;;;;;4988907;28;20452;-55
2022/09/26 05:52:35;;;;;;;5.70;3.80;;;;;;;;;;4980927;28;20445;-57
2022/09/26 05:55:01;;;;;;;8.30;4.20;;;;;;;;;;4957403;28;20480;-57
2022/09/26 05:57:26;;;;;;;6.83;4.77;;;;;;;;;;4956077;28;20446;-54
2022/09/26 05:59:52;;;;;;;5.70;3.70;;;;;;;;;;4943008;28;20453;-56
2022/09/26 06:02:18;;;;;;;5.00;4.07;;;;;;;;;;4974566;28;20622;-56
2022/09/26 06:04:44;;;;;;;3.90;3.37;;;;;;;;;;4951492;28;20550;-54
2022/09/26 06:07:11;;;;;;;9.67;3.23;;;;;;;;;;4980850;28;20189;-56
2022/09/26 06:09:37;;;;;;;6.40;3.50;;;;;;;;;;4955647;28;20535;-56
2022/09/26 06:12:03;;;;;;;3.97;3.30;;;;;;;;;;4972891;28;20476;-55
2022/09/26 06:14:30;;;;;;;7.40;3.60;;;;;;;;;;4965647;28;20624;-56
2022/09/26 06:16:56;;;;;;;5.23;3.43;;;;;;;;;;4972376;28;20584;-56
2022/09/26 06:19:23;;;;;;;5.70;3.97;;;;;;;;;;4966078;28;20544;-56
2022/09/26 06:21:49;;;;;;;6.67;4.03;;;;;;;;;;4970838;28;20512;-55
2022/09/26 06:24:19;;;;;;;5.33;3.50;;;;;;;;;;4943273;28;21252;-57
2022/09/26 06:26:45;;;;;;;3.70;3.30;;;;;;;;;;4974381;28;20508;-56
2022/09/26 06:29:11;;;;;;;4.83;4.30;;;;;;;;;;4953635;28;20441;-57
2022/09/26 06:31:37;;;;;;;6.23;3.53;;;;;;;;;;4979086;28;20461;-56
2022/09/26 06:34:04;;;;;;;4.13;2.93;;;;;;;;;;4958623;28;20989;-55
2022/09/26 06:36:30;;;;;;;4.13;3.30;;;;;;;;;;4972406;28;20473;-57
2022/09/26 06:38:56;;;;;;;3.77;3.27;;;;;;;;;;4962904;28;20955;-54
2022/09/26 06:41:24;;;;;;;4.00;3.60;;;;;;;;;;4967238;28;20846;-57
2022/09/26 06:43:51;;;;;;;10.33;3.67;;;;;;;;;;4969634;28;20452;-56
2022/09/26 06:46:17;;;;;;;6.77;3.20;;;;;;;;;;4963156;28;20446;-57
2022/09/26 06:48:43;;;;;;;5.60;3.57;;;;;;;;;;4971168;28;20432;-57
2022/09/26 06:51:13;;;;;;;4.63;3.50;;;;;;;;;;4956320;28;20432;-57
2022/09/26 06:53:39;;;;;;;3.00;2.70;;;;;;;;;;4980821;28;20958;-56
2022/09/26 06:56:05;;;;;;;3.70;3.40;;;;;;;;;;4964821;28;20491;-56
2022/09/26 06:58:44;;;;;;;5.67;3.30;;;;;;;;;;4974963;28;20463;-56
2022/09/26 07:01:17;;;;;;;3.70;2.93;;;;;;;;;;4957225;28;20471;-56
2022/09/26 07:03:43;;;;;;;3.87;2.83;;;;;;;;;;4966079;28;20453;-56
2022/09/26 07:06:09;;;;;;;4.37;2.63;;;;;;;;;;4959740;28;20457;-56
2022/09/26 07:08:36;;;;;;;4.33;2.80;;;;;;;;;;4972388;28;20948;-57
2022/09/26 07:11:03;;;;;;;3.83;2.37;;;;;;;;;;4953748;28;20449;-59
2022/09/26 07:13:29;;;;;;;3.50;3.20;;;;;;;;;;4956203;28;21478;-56
2022/09/26 07:15:57;;;;;;;3.60;2.80;;;;;;;;;;4958630;28;20481;-55
2022/09/26 07:18:23;;;;;;;3.50;2.53;;;;;;;;;;4957180;28;20454;-56
2022/09/26 07:20:50;;;;;;;8.70;2.67;;;;;;;;;;4962415;28;20505;-57
2022/09/26 07:23:16;;;;;;;4.07;2.70;;;;;;;;;;4955237;28;20477;-56
2022/09/26 07:25:46;;;;;;;2.80;2.40;;;;;;;;;;4976037;28;20428;-56
2022/09/26 07:28:12;;;;;;;4.67;3.30;;;;;;;;;;4955388;28;20484;-56
2022/09/26 07:30:40;;;;;;;3.67;2.73;;;;;;;;;;4969645;28;20429;-56
2022/09/26 07:33:08;;;;;;;3.10;2.40;;;;;;;;;;4909323;28;20535;-55
2022/09/26 07:35:35;;;;;;;7.97;2.70;;;;;;;;;;4969637;28;20572;-55
2022/09/26 07:38:02;;;;;;;3.60;2.60;;;;;;;;;;4954189;28;21166;-57
2022/09/26 07:40:27;;;;;;;5.53;3.67;;;;;;;;;;4977134;28;20444;-56
2022/09/26 07:42:57;;;;;;;4.30;3.47;;;;;;;;;;4939187;28;20467;-56
2022/09/26 07:50:53;;;;;;;7.97;4.57;;;;;;;;;;4978800;28;20448;-57
2022/09/26 07:53:19;;;;;;;5.40;2.87;;;;;;;;;;4951426;28;20449;-57
2022/09/26 07:56:04;;;;;;;3.47;2.80;;;;;;;;;;4973957;28;20473;-56
2022/09/26 07:58:30;;;;;;;4.60;3.10;;;;;;;;;;4953627;28;20469;-57
2022/09/26 08:00:56;;;;;;;7.73;3.63;;;;;;;;;;4969061;28;21095;-55
2022/09/26 08:03:27;;;;;;;3.60;2.53;;;;;;;;;;4946207;28;20437;-56
2022/09/26 08:05:58;;;;;;;3.40;2.93;;;;;;;;;;4945793;28;20440;-55
2022/09/26 08:08:23;;;;;;;5.90;3.60;;;;;;;;;;4963959;28;20438;-56
2022/09/26 08:10:49;;;;;;;3.40;2.27;;;;;;;;;;4947660;28;21049;-55
2022/09/26 08:13:15;;;;;;;3.00;2.37;;;;;;;;;;4970366;28;20441;-54
2022/09/26 08:15:41;;;;;;;5.23;2.40;;;;;;;;;;4942388;28;20469;-55
2022/09/26 08:18:07;;;;;;;3.50;2.37;;;;;;;;;;4971127;28;20818;-55
2022/09/26 08:20:34;;;;;;;5.50;3.10;;;;;;;;;;4948115;28;20454;-56
2022/09/26 08:23:00;;;;;;;4.90;2.63;;;;;;;;;;4968095;28;20447;-57
2022/09/26 08:25:26;;;;;;;5.20;2.60;;;;;;;;;;4950062;28;20469;-56
2022/09/26 08:27:58;;;;;;;3.37;2.70;;;;;;;;;;4978322;28;20442;-56
2022/09/26 08:30:24;;;;;;;13.63;3.03;;;;;;;;;;4950129;28;20468;-56
2022/09/26 08:32:53;;;;;;;4.27;2.20;;;;;;;;;;4982039;28;21005;-56
2022/09/26 08:35:22;;;;;;;2.40;2.00;;;;;;;;;;4976297;28;21569;-55
2022/09/26 08:37:48;;;;;;;3.67;2.73;;;;;;;;;;4939538;28;20558;-56
2022/09/26 08:40:14;;;;;;;2.47;2.27;;;;;;;;;;4972607;28;20425;-55
2022/09/26 08:42:44;;;;;;;3.10;2.80;;;;;;;;;;4951013;28;20867;-56
2022/09/26 08:48:13;;;;;;;3.40;2.27;;;;;;;;;;4953247;28;20487;-55
2022/09/26 08:50:45;;;;;;;3.60;1.90;;;;;;;;;;4969116;28;20437;-56
2022/09/26 08:53:12;;;;;;;3.13;2.60;;;;;;;;;;4955513;28;20484;-56
2022/09/26 08:55:40;;;;;;;5.53;2.20;;;;;;;;;;4970889;28;20500;-55
2022/09/26 08:58:19;;;;;;;3.40;2.37;;;;;;;;;;4952768;28;20429;-56
2022/09/26 09:00:47;;;;;;;6.53;2.47;;;;;;;;;;4969987;28;20440;-55
2022/09/26 09:03:23;;;;;;;5.33;2.77;;;;;;;;;;4957784;28;20456;-55
2022/09/26 09:05:49;;;;;;;4.83;2.83;;;;;;;;;;4938670;28;20453;-58
2022/09/26 09:08:20;;;;;;;3.97;2.93;;;;;;;;;;4968250;28;20434;-54
2022/09/26 09:10:49;;;;;;;4.00;2.70;;;;;;;;;;4971664;28;20450;-54
2022/09/26 09:13:22;;;;;;;4.47;2.30;;;;;;;;;;4960102;28;20460;-55
2022/09/26 09:15:52;;;;;;;3.47;2.30;;;;;;;;;;4971400;28;20495;-55
2022/09/26 09:18:27;;;;;;;3.83;2.10;;;;;;;;;;4957816;28;20500;-56
2022/09/26 09:20:58;;;;;;;2.60;1.60;;;;;;;;;;4972106;28;20968;-56
2022/09/26 09:23:34;;;;;;;2.40;1.87;;;;;;;;;;4958944;28;20547;-56
2022/09/26 09:26:06;;;;;;;2.60;2.10;;;;;;;;;;4966215;28;20439;-56
2022/09/26 09:28:32;;;;;;;5.57;2.10;;;;;;;;;;4965737;28;20464;-56
2022/09/26 09:30:59;;;;;;;3.57;2.50;;;;;;;;;;4960307;28;20433;-57
2022/09/26 09:33:30;;;;;;;4.20;1.97;;;;;;;;;;4959729;28;21109;-56
2022/09/26 09:36:17;;;;;;;3.60;2.60;;;;;;;;;;4968293;28;20621;-56
2022/09/26 09:38:46;;;;;;;3.83;2.20;;;;;;;;;;4963949;28;20527;-58
2022/09/26 09:41:27;;;;;;;4.70;1.80;;;;;;;;;;4967691;28;20479;-57
2022/09/26 09:43:53;;;;;;;2.63;1.90;;;;;;;;;;4932325;28;20461;-56
2022/09/26 09:46:23;;;;;;;5.10;2.17;;;;;;;;;;4966295;28;20441;-55
2022/09/26 09:48:53;;;;;;;6.27;2.30;;;;;;;;;;4949403;28;20445;-56
2022/09/26 09:51:28;;;;;;;2.90;2.10;;;;;;;;;;4966189;28;20465;-55
2022/09/26 09:54:02;;;;;;;3.80;2.00;;;;;;;;;;4948294;28;20496;-56
2022/09/26 09:56:54;;;;;;;3.00;2.07;;;;;;;;;;4965648;28;21615;-57
2022/09/26 09:59:25;;;;;;;3.63;2.00;;;;;;;;;;4954919;28;20488;-56
2022/09/26 10:02:18;;;;;;;3.23;2.07;;;;;;;;;;4960094;28;20438;-56
2022/09/26 10:04:45;;;;;;;2.80;1.73;;;;;;;;;;4969730;28;20536;-58
2022/09/26 10:07:12;;;;;;;3.40;1.70;;;;;;;;;;4935168;28;20477;-55
2022/09/26 10:09:38;;;;;;;4.20;2.00;;;;;;;;;;4936681;28;21437;-56
2022/09/26 10:12:11;;;;;;;2.33;1.50;;;;;;;;;;4943728;28;20953;-57
2022/09/26 10:14:40;;;;;;;2.20;1.30;;;;;;;;;;4967758;28;20433;-56
2022/09/26 10:17:17;;;;;;;3.93;1.30;;;;;;;;;;4960773;28;20484;-56
2022/09/26 10:19:43;;;;;;;2.40;1.33;;;;;;;;;;4967468;28;20439;-55
2022/09/26 10:22:23;;;;;;;1.60;1.23;;;;;;;;;;4941365;28;20525;-56
2022/09/26 10:24:50;;;;;;;2.83;1.47;;;;;;;;;;4963207;28;20445;-55
2022/09/26 10:27:20;;;;;;;3.40;1.50;;;;;;;;;;4950499;28;20436;-57
2022/09/26 10:29:46;;;;;;;2.20;1.20;;;;;;;;;;4944041;28;20453;-56
2022/09/26 10:32:13;;;;;;;2.97;1.33;;;;;;;;;;4973642;28;20431;-57
2022/09/26 10:34:39;;;;;;;2.17;1.70;;;;;;;;;;4950840;28;20441;-56
2022/09/26 10:37:17;;;;;;;2.57;1.37;;;;;;;;;;4972926;28;20512;-55
2022/09/26 10:42:27;;;;;;;9.33;1.67;;;;;;;;;;4975947;28;20572;-57
2022/09/26 10:44:56;;;;;;;3.73;1.57;;;;;;;;;;4954806;28;20444;-58
2022/09/26 10:47:23;;;;;;;2.43;1.60;;;;;;;;;;4974663;28;20449;-57
2022/09/26 10:49:51;;;;;;;2.03;1.20;;;;;;;;;;4969353;28;20519;-57
2022/09/26 10:52:25;;;;;;;4.20;1.30;;;;;;;;;;4978184;28;20436;-57
2022/09/26 10:55:03;;;;;;;3.57;1.80;;;;;;;;;;4944703;28;20467;-62
2022/09/26 10:57:44;;;;;;;3.67;1.30;;;;;;;;;;4977963;28;20450;-57
2022/09/26 11:00:12;;;;;;;1.50;1.00;;;;;;;;;;4966630;28;20459;-57
2022/09/26 11:02:41;;;;;;;4.33;1.77;;;;;;;;;;4981006;28;20445;-57
2022/09/26 11:07:55;;;;;;;2.93;1.53;;;;;;;;;;4968163;28;20453;-57
2022/09/26 11:10:23;;;;;;;3.40;1.90;;;;;;;;;;4946380;28;20476;-57
2022/09/26 11:13:01;;;;;;;2.90;1.20;;;;;;;;;;4986276;28;20433;-57
2022/09/26 11:15:27;;;;;;;1.97;1.47;;;;;;;;;;4964443;28;20480;-55
2022/09/26 11:17:54;;;;;;;2.80;1.30;;;;;;;;;;4973230;28;20499;-57
2022/09/26 11:20:43;;;;;;;3.50;1.50;;;;;;;;;;4973318;28;20511;-57
2022/09/26 11:23:28;;;;;;;2.97;1.30;;;;;;;;;;4963329;28;20488;-57
2022/09/26 11:25:55;;;;;;;2.77;1.57;;;;;;;;;;4974990;28;20437;-57
2022/09/26 11:28:40;;;;;;;5.07;1.30;;;;;;;;;;4948878;28;21042;-57
2022/09/26 11:31:24;;;;;;;1.97;1.50;;;;;;;;;;4974361;28;20449;-57
2022/09/26 11:33:50;;;;;;;2.80;1.80;;;;;;;;;;4944768;28;20463;-57
2022/09/26 11:36:23;;;;;;;2.70;1.10;;;;;;;;;;4966621;28;20484;-57
2022/09/26 11:38:56;;;;;;;2.87;1.30;;;;;;;;;;4962921;28;20453;-56
2022/09/26 11:41:41;;;;;;;1.67;1.00;;;;;;;;;;4954960;28;20453;-55
2022/09/26 11:44:26;;;;;;;4.93;1.40;;;;;;;;;;4975841;28;20609;-57
2022/09/26 11:47:17;;;;;;;4.40;1.30;;;;;;;;;;4992315;28;20512;-56
2022/09/26 11:50:03;;;;;;;3.47;1.20;;;;;;;;;;4958921;28;20484;-57
2022/09/26 11:52:29;;;;;;;2.53;1.40;;;;;;;;;;4972764;28;20437;-59
2022/09/26 11:55:15;;;;;;;2.93;1.70;;;;;;;;;;4970527;28;20505;-57
2022/09/26 11:57:44;;;;;;;3.40;1.70;;;;;;;;;;4973381;28;20457;-57
2022/09/26 12:00:23;;;;;;;2.17;1.70;;;;;;;;;;4947060;28;21308;-57
2022/09/26 12:02:59;;;;;;;2.13;1.10;;;;;;;;;;4978456;28;20457;-57
2022/09/26 12:05:25;;;;;;;1.40;0.93;;;;;;;;;;4959440;28;20586;-55
2022/09/26 12:07:54;;;;;;;1.90;0.70;;;;;;;;;;4981959;28;20467;-56
2022/09/26 12:10:38;;;;;;;2.67;1.17;;;;;;;;;;4969503;28;20194;-55
2022/09/26 12:13:10;;;;;;;1.40;0.90;;;;;;;;;;4985022;28;20967;-55
2022/09/26 12:15:43;;;;;;;2.20;1.20;;;;;;;;;;4936792;28;20499;-57
2022/09/26 12:18:19;;;;;;;1.90;1.00;;;;;;;;;;4983077;28;20500;-54
2022/09/26 12:20:45;;;;;;;3.43;1.40;;;;;;;;;;4980023;28;20475;-54
2022/09/26 12:23:20;;;;;;;1.77;1.33;;;;;;;;;;4982781;28;21044;-57
2022/09/26 12:26:07;;;;;;;2.57;1.30;;;;;;;;;;4954883;28;20186;-56
2022/09/26 12:28:36;;;;;;;1.80;1.07;;;;;;;;;;4977437;28;20846;-55
2022/09/26 12:31:21;;;;;;;2.43;1.00;;;;;;;;;;4952835;28;20459;-55
2022/09/26 12:33:50;;;;;;;2.70;1.10;;;;;;;;;;4972123;28;20435;-58
2022/09/26 12:36:26;;;;;;;2.87;1.30;;;;;;;;;;4965150;28;20482;-56
2022/09/26 12:39:00;;;;;;;2.50;1.33;;;;;;;;;;4975423;28;20509;-57
2022/09/26 12:41:45;;;;;;;4.60;3.87;;;;;;;;;;4944696;28;20668;-56
2022/09/26 12:44:31;;;;;;;2.97;1.60;;;;;;;;;;4981833;28;20847;-55
2022/09/26 12:46:57;;;;;;;1.80;1.10;;;;;;;;;;4942287;28;20445;-56
2022/09/26 12:49:33;;;;;;;1.93;1.17;;;;;;;;;;4973636;28;20446;-57
2022/09/26 12:52:04;;;;;;;2.10;1.30;;;;;;;;;;4975077;28;20510;-57
2022/09/26 12:54:37;;;;;;;3.70;1.93;;;;;;;;;;4950906;28;20453;-57
2022/09/26 12:57:09;;;;;;;4.67;1.40;;;;;;;;;;4953562;28;20478;-57
2022/09/26 12:59:45;;;;;;;4.73;1.33;;;;;;;;;;4975037;28;20508;-55
2022/09/26 13:02:11;;;;;;;1.90;1.20;;;;;;;;;;4959442;28;20479;-58
2022/09/26 13:05:13;;;;;;;1.90;1.30;;;;;;;;;;4976323;28;21076;-57
2022/09/26 13:07:41;;;;;;;1.60;0.87;;;;;;;;;;4973863;28;20193;-55
2022/09/26 13:10:07;;;;;;;1.83;0.77;;;;;;;;;;4951620;28;21076;-57
2022/09/26 13:12:39;;;;;;;2.73;1.10;;;;;;;;;;4969174;28;20537;-57
2022/09/26 13:15:24;;;;;;;1.60;1.00;;;;;;;;;;4968003;28;20504;-57
2022/09/26 13:17:53;;;;;;;1.80;0.80;;;;;;;;;;4991818;28;20551;-57
2022/09/26 13:20:21;;;;;;;1.87;0.90;;;;;;;;;;4941613;28;20442;-57
2022/09/26 13:22:48;;;;;;;1.53;0.90;;;;;;;;;;4973371;28;20978;-57
2022/09/26 13:25:17;;;;;;;1.43;0.90;;;;;;;;;;4971388;28;20425;-56
2022/09/26 13:27:43;;;;;;;1.67;0.87;;;;;;;;;;4977665;28;20434;-55
2022/09/26 13:30:15;;;;;;;1.87;0.80;;;;;;;;;;4950476;28;20534;-55
2022/09/26 13:33:00;;;;;;;1.20;0.60;;;;;;;;;;4979142;28;20444;-56
2022/09/26 13:35:27;;;;;;;1.20;0.70;;;;;;;;;;4951597;28;21385;-55
2022/09/26 13:37:56;;;;;;;1.37;0.80;;;;;;;;;;4986160;28;20432;-54
2022/09/26 13:40:24;;;;;;;1.70;0.70;;;;;;;;;;4973081;28;20418;-56
2022/09/26 13:42:55;;;;;;;2.03;0.73;;;;;;;;;;4983090;28;20528;-57
2022/09/26 13:45:30;;;;;;;1.30;0.60;;;;;;;;;;4948854;28;20471;-57
2022/09/26 13:47:59;;;;;;;2.83;0.80;;;;;;;;;;4964874;28;20432;-56
2022/09/26 13:50:26;;;;;;;1.20;0.70;;;;;;;;;;4934454;28;20452;-57
2022/09/26 13:52:55;;;;;;;2.50;1.00;;;;;;;;;;4963942;28;20469;-57
2022/09/26 13:55:21;;;;;;;1.57;0.83;;;;;;;;;;4943649;28;20477;-56
2022/09/26 13:57:48;;;;;;;1.50;0.97;;;;;;;;;;4974855;28;20473;-57
2022/09/26 14:00:28;;;;;;;2.20;1.00;;;;;;;;;;4966095;28;20519;-58
2022/09/26 14:03:12;;;;;;;2.23;0.70;;;;;;;;;;4970200;28;20448;-57
2022/09/26 14:05:41;;;;;;;1.80;0.70;;;;;;;;;;4943650;28;20452;-58
2022/09/26 14:11:34;;;;;;;1.60;0.83;;;;;;;;;;4953105;28;20491;-57
2022/09/26 14:14:16;;;;;;;2.60;1.13;;;;;;;;;;4980416;28;20429;-57
2022/09/26 14:16:42;;;;;;;1.80;0.90;;;;;;;;;;4962050;28;20502;-55
2022/09/26 14:19:09;;;;;;;1.53;0.70;;;;;;;;;;4980803;28;20798;-56
2022/09/26 14:21:37;;;;;;;2.03;0.93;;;;;;;;;;4936960;28;21070;-56
2022/09/26 14:24:24;;;;;;;2.13;0.90;;;;;;;;;;4981987;28;20433;-57
2022/09/26 14:26:59;;;;;;;2.17;1.07;;;;;;;;;;4972370;28;20503;-56
2022/09/26 14:29:25;;;;;;;2.53;1.10;;;;;;;;;;4982225;28;20436;-57
2022/09/26 14:32:07;;;;;;;2.80;1.00;;;;;;;;;;4954938;28;20437;-56
2022/09/26 14:34:48;;;;;;;1.97;1.17;;;;;;;;;;4982269;28;20959;-56
2022/09/26 14:37:24;;;;;;;1.83;1.10;;;;;;;;;;4959689;28;20483;-58
2022/09/26 14:40:16;;;;;;;1.80;1.17;;;;;;;;;;4978883;28;20437;-59
2022/09/26 14:42:42;;;;;;;1.63;0.97;;;;;;;;;;4972265;28;20481;-57
2022/09/26 14:45:15;;;;;;;1.60;1.10;;;;;;;;;;4984049;28;20452;-58
2022/09/26 14:47:59;;;;;;;5.40;1.73;;;;;;;;;;4980857;28;20436;-57
2022/09/26 14:50:31;;;;;;;2.47;1.10;;;;;;;;;;4957424;28;20468;-56
2022/09/26 14:52:58;;;;;;;1.50;1.10;;;;;;;;;;4978341;28;20524;-53
2022/09/26 14:55:38;;;;;;;1.70;1.40;;;;;;;;;;4973767;28;20995;-56
2022/09/26 14:58:17;;;;;;;3.73;1.07;;;;;;;;;;4973068;28;20476;-55
2022/09/26 15:00:44;;;;;;;1.40;0.90;;;;;;;;;;4973074;28;20468;-55
2022/09/26 15:03:13;;;;;;;2.30;1.37;;;;;;;;;;4958123;28;20892;-55
2022/09/26 15:05:44;;;;;;;1.50;1.00;;;;;;;;;;4962689;28;20521;-56
2022/09/26 15:08:24;;;;;;;2.07;1.10;;;;;;;;;;4953379;28;20499;-55
2022/09/26 15:10:50;;;;;;;2.57;1.13;;;;;;;;;;4965365;28;20449;-54
2022/09/26 15:13:20;;;;;;;2.67;1.10;;;;;;;;;;4955201;28;20450;-55
2022/09/26 15:15:51;;;;;;;2.70;1.40;;;;;;;;;;4965723;28;21586;-57
2022/09/26 15:18:17;;;;;;;1.83;1.23;;;;;;;;;;4971473;28;23053;-55
2022/09/26 15:20:46;;;;;;;1.80;1.03;;;;;;;;;;4982483;28;20450;-59
2022/09/26 15:23:17;;;;;;;1.90;0.90;;;;;;;;;;4953116;28;20448;-56
2022/09/26 15:25:44;;;;;;;1.60;0.90;;;;;;;;;;4968935;28;20473;-56
2022/09/26 15:28:10;;;;;;;1.43;1.07;;;;;;;;;;4945552;28;20462;-55
2022/09/26 15:30:38;;;;;;;1.90;0.80;;;;;;;;;;4968299;28;20445;-56
2022/09/26 15:33:06;;;;;;;1.70;0.80;;;;;;;;;;4958540;28;20448;-56
2022/09/26 15:35:32;;;;;;;4.93;0.97;;;;;;;;;;4960962;28;20511;-55
2022/09/26 15:38:02;;;;;;;1.30;0.70;;;;;;;;;;4961759;28;20445;-55
2022/09/26 15:40:28;;;;;;;1.30;0.90;;;;;;;;;;4964009;28;22078;-56
2022/09/26 15:43:10;;;;;;;1.70;0.87;;;;;;;;;;4962222;28;20926;-56
2022/09/26 15:45:45;;;;;;;2.10;1.40;;;;;;;;;;4959712;28;20441;-57